»·PEaware :: N801DM KBUR-KPHX

N801DM :: KBUR-KPHX

FLIGHT INFORMATION

Flight Status: Arrived
Operator: Privately registered:
United States
More flights under this callsign
Pilot: Drew Leevy (13237)
Aircraft: BOEING 757-200
(B752)
More flights by this aircraft type
Origin: KBUR Bob Hope-Burbank
United States
Destination: KPHX Phoenix Sky Harbor Intl
United States
More flights between these airports :: More routes between these airports
Route: SLAPP1 HEC PRFUM WOTRO BRUSR1
File this flight plan on PilotEdge
Remarks:
Altitude:
(Current/Filed)
35,000ft
Speed:
(Current/Filed)
450kts
Departed: 26-Apr-17 09:44 PM
Arrived: 26-Apr-17 10:49 PM
Distance/Time
Traveled:
320nm/1:05
Distance/Time
To Go:
Arrived

Flight Plot

Page will automatically refresh every two minutes.

Flight plan parsing failed; only flown route is shown


Map Options




Map Legend


Flown Route
Filed Route
Departure Airport
Arrival Airport
Navaid (VOR, NDB)
Fix

Horizontal Profiles

Position Reports

Time Latitude Longitude Heading Altitude Ground
Speed
26-Apr-17 21:13 34.200318 -118.358696 255 789ft 0kts
26-Apr-17 21:14 34.200318 -118.358696 255 789ft 0kts
26-Apr-17 21:15 34.200318 -118.358696 255 789ft 0kts
26-Apr-17 21:16 34.200318 -118.358696 255 789ft 0kts
26-Apr-17 21:17 34.200317 -118.358696 255 789ft 0kts
26-Apr-17 21:18 34.200318 -118.358696 255 789ft 0kts
26-Apr-17 21:19 34.200318 -118.358696 255 789ft 0kts
26-Apr-17 21:20 34.200318 -118.358696 255 789ft 0kts
26-Apr-17 21:21 34.200318 -118.358696 255 789ft 0kts
26-Apr-17 21:22 34.200318 -118.358696 255 789ft 0kts
26-Apr-17 21:23 34.200318 -118.358696 255 789ft 0kts
26-Apr-17 21:24 34.200318 -118.358696 255 789ft 0kts
26-Apr-17 21:25 34.200318 -118.358696 255 789ft 0kts
26-Apr-17 21:26 34.200318 -118.358696 255 789ft 0kts
26-Apr-17 21:27 34.200318 -118.358696 255 789ft 0kts
26-Apr-17 21:28 34.200318 -118.358696 255 789ft 0kts
26-Apr-17 21:29 34.200318 -118.358696 255 789ft 0kts
26-Apr-17 21:30 34.200318 -118.358696 255 789ft 0kts
26-Apr-17 21:31 34.200318 -118.358696 255 789ft 0kts
26-Apr-17 21:32 34.200318 -118.358696 255 789ft 0kts
26-Apr-17 21:33 34.200318 -118.358696 255 789ft 0kts
26-Apr-17 21:34 34.200318 -118.358696 255 789ft 0kts
26-Apr-17 21:35 34.200318 -118.358696 255 789ft 0kts
26-Apr-17 21:36 34.200318 -118.358696 255 789ft 0kts
26-Apr-17 21:37 34.200312 -118.358722 255 789ft 0kts
26-Apr-17 21:38 34.199964 -118.358949 171 788ft 0kts
26-Apr-17 21:39 34.198965 -118.357965 175 788ft 8kts
26-Apr-17 21:40 34.197164 -118.357970 177 789ft 13kts
26-Apr-17 21:41 34.194903 -118.356667 167 789ft 0kts
26-Apr-17 21:42 34.194903 -118.356667 167 789ft 0kts
26-Apr-17 21:43 34.194903 -118.356667 167 789ft 0kts
26-Apr-17 21:44 34.194903 -118.356667 167 789ft 0kts
26-Apr-17 21:45 34.194697 -118.356599 160 789ft 10kts
26-Apr-17 21:46 34.211209 -118.360216 348 1497ft 160kts
26-Apr-17 21:47 34.234886 -118.403015 276 3935ft 277kts
26-Apr-17 21:48 34.244361 -118.472167 302 8664ft 259kts
26-Apr-17 21:49 34.308347 -118.498407 351 12988ft 272kts
26-Apr-17 21:50 34.383568 -118.485064 34 16938ft 320kts
26-Apr-17 21:51 34.407668 -118.371268 78 20364ft 380kts
26-Apr-17 21:52 34.415766 -118.241514 77 23537ft 396kts
26-Apr-17 21:53 34.426610 -118.098946 76 24529ft 464kts
26-Apr-17 21:54 34.440333 -117.942154 76 27215ft 480kts
26-Apr-17 21:55 34.454325 -117.778932 77 29516ft 496kts
26-Apr-17 21:56 34.480175 -117.614929 69 31741ft 499kts
26-Apr-17 21:57 34.509008 -117.453172 69 34639ft 488kts
26-Apr-17 21:58 34.538500 -117.295793 69 34909ft 487kts
26-Apr-17 21:59 34.566099 -117.135077 70 34862ft 489kts
26-Apr-17 22:00 34.593099 -116.973639 70 34858ft 488kts
26-Apr-17 22:01 34.620652 -116.812895 70 34859ft 487kts
26-Apr-17 22:02 34.647995 -116.652693 70 34860ft 487kts
26-Apr-17 22:03 34.676120 -116.491931 69 34861ft 487kts
26-Apr-17 22:04 34.703280 -116.336740 70 34857ft 487kts
26-Apr-17 22:05 34.729234 -116.176159 71 34859ft 486kts
26-Apr-17 22:06 34.754874 -116.014544 71 34881ft 487kts
26-Apr-17 22:07 34.781090 -115.853503 70 34883ft 486kts
26-Apr-17 22:08 34.807139 -115.692878 70 34849ft 487kts
26-Apr-17 22:09 34.833468 -115.532123 70 34723ft 486kts
26-Apr-17 22:10 34.859666 -115.371199 70 34724ft 485kts
26-Apr-17 22:11 34.885220 -115.212903 70 34716ft 485kts
26-Apr-17 22:12 34.910950 -115.052150 71 34690ft 486kts
26-Apr-17 22:13 34.935622 -114.890679 72 34691ft 486kts
26-Apr-17 22:14 34.959918 -114.729102 71 34692ft 485kts
26-Apr-17 22:15 34.981024 -114.566958 72 34693ft 485kts
26-Apr-17 22:16 35.004706 -114.405475 71 34694ft 485kts
26-Apr-17 22:17 35.028227 -114.247713 72 34794ft 485kts
26-Apr-17 22:18 35.052127 -114.086366 72 34796ft 485kts
26-Apr-17 22:19 35.075851 -113.924726 72 34797ft 484kts
26-Apr-17 22:20 35.099273 -113.763606 72 34798ft 484kts
26-Apr-17 22:21 35.121953 -113.606108 72 34813ft 484kts
26-Apr-17 22:22 35.144984 -113.444632 72 34577ft 485kts
26-Apr-17 22:23 35.135501 -113.280110 105 32599ft 518kts
26-Apr-17 22:24 35.060507 -113.127624 120 29909ft 529kts
26-Apr-17 22:25 34.979418 -112.981229 120 28949ft 520kts
26-Apr-17 22:26 34.899437 -112.837242 120 28955ft 513kts
26-Apr-17 22:27 34.821191 -112.696892 120 28946ft 512kts
26-Apr-17 22:28 34.741242 -112.554065 120 28149ft 513kts
26-Apr-17 22:29 34.647339 -112.427562 139 26204ft 503kts
26-Apr-17 22:30 34.541926 -112.323608 140 24178ft 487kts
26-Apr-17 22:31 34.434151 -112.230194 158 21960ft 469kts
26-Apr-17 22:32 34.311862 -112.191869 171 19776ft 447kts
26-Apr-17 22:33 34.193333 -112.160932 171 17576ft 426kts
26-Apr-17 22:34 34.082740 -112.132104 166 15348ft 393kts
26-Apr-17 22:35 33.982329 -112.091855 162 13165ft 372kts
26-Apr-17 22:36 33.888353 -112.053719 161 11021ft 356kts
26-Apr-17 22:37 33.799042 -112.017489 161 9958ft 310kts
26-Apr-17 22:38 33.729144 -111.990997 158 9885ft 295kts
26-Apr-17 22:39 33.653450 -111.958769 160 8971ft 282kts
26-Apr-17 22:40 33.583157 -111.930120 167 8047ft 247kts
26-Apr-17 22:41 33.527332 -111.901279 128 7564ft 213kts
26-Apr-17 22:42 33.533648 -111.830379 81 7212ft 216kts
26-Apr-17 22:43 33.544820 -111.763516 93 6601ft 201kts
26-Apr-17 22:44 33.492848 -111.732482 171 5941ft 238kts
26-Apr-17 22:45 33.432749 -111.744191 218 5091ft 213kts
26-Apr-17 22:46 33.424930 -111.806306 277 4214ft 198kts
26-Apr-17 22:47 33.428213 -111.863069 271 3487ft 149kts
26-Apr-17 22:48 33.428689 -111.909787 270 2698ft 138kts
26-Apr-17 22:49 33.428791 -111.954415 270 1953ft 133kts
26-Apr-17 22:50 33.428845 -111.997396 270 1296ft 132kts
26-Apr-17 22:51 33.427838 -112.016310 113 1146ft 11kts
26-Apr-17 22:52 33.427310 -112.010096 173 1146ft 0kts

Navigation Log

Ident Type
Flight plan parsing failed, navigation log unavailable